Time;durP1;ratioP1;P1;durP2;ratioP2;P2;SDS_P1;SDS_P2;PMS_P1;PMS_P2;Temp;Humidity;BMP_temperature;BMP_pressure;BME280_temperature;BME280_humidity;BME280_pressure;Samples;Min_cycle;Max_cycle;Signal;HPM_P1;HPM_P2
2022/01/12 00:01:35;;;;;;;12.82;9.15;;;;;;;15.07;39.58;94739.97;4949226;28;20040;-81
2022/01/12 00:04:00;;;;;;;11.95;8.13;;;;;;;15.10;39.55;94739.06;4935138;28;20036;-81
2022/01/12 00:06:26;;;;;;;12.40;8.60;;;;;;;15.06;39.62;94738.44;4925250;28;20043;-81
2022/01/12 00:08:51;;;;;;;11.40;8.10;;;;;;;15.14;39.01;94741.63;4932924;28;20474;-81
2022/01/12 00:11:19;;;;;;;13.93;9.32;;;;;;;15.15;39.59;94745.88;4949715;28;20141;-81
2022/01/12 00:13:45;;;;;;;13.93;8.05;;;;;;;15.13;39.74;94734.66;4918303;29;20043;-81
2022/01/12 00:16:10;;;;;;;11.75;7.97;;;;;;;15.12;39.38;94736.63;4932350;28;20058;-81
2022/01/12 00:18:35;;;;;;;12.13;8.40;;;;;;;15.13;39.51;94740.88;4950966;28;20039;-81
2022/01/12 00:21:01;;;;;;;14.02;8.20;;;;;;;15.15;39.45;94740.41;4948942;28;20431;-81
2022/01/12 00:23:26;;;;;;;10.98;7.75;;;;;;;15.10;39.43;94730.88;4916798;29;20039;-81
2022/01/12 00:26:05;;;;;;;12.80;8.45;;;;;;;15.07;39.54;94739.97;4916884;29;20491;-81
2022/01/12 00:34:15;;;;;;;11.20;8.32;;;;;;;15.13;39.33;94743.59;4885612;29;20131;-81
2022/01/12 00:36:41;;;;;;;11.52;7.63;;;;;;;15.13;39.68;94737.38;4893359;29;20095;-81
2022/01/12 00:39:07;;;;;;;12.20;7.63;;;;;;;15.10;39.54;94744.50;4893134;29;20138;-81
2022/01/12 00:41:32;;;;;;;12.45;8.25;;;;;;;15.09;39.55;94745.72;4877977;29;20115;-81
2022/01/12 00:43:59;;;;;;;10.63;7.32;;;;;;;15.09;39.32;94741.03;4878118;29;20511;-81
2022/01/12 00:46:26;;;;;;;10.25;6.90;;;;;;;15.05;39.36;94745.09;4908570;29;20040;-81
2022/01/12 00:48:52;;;;;;;11.10;7.88;;;;;;;15.09;39.54;94740.25;4878031;29;20059;-82
2022/01/12 00:51:17;;;;;;;9.32;6.93;;;;;;;15.08;39.20;94739.50;4892707;29;20048;-81
2022/01/12 00:53:43;;;;;;;11.52;7.38;;;;;;;15.14;39.78;94738.91;4893119;29;20037;-81
2022/01/12 00:56:08;;;;;;;8.07;6.18;;;;;;;15.06;39.44;94733.75;4892910;29;20040;-81
2022/01/12 00:58:36;;;;;;;10.32;7.43;;;;;;;15.09;39.32;94732.84;4893427;29;20044;-81
2022/01/12 01:01:02;;;;;;;11.85;7.60;;;;;;;15.11;39.33;94739.81;4877747;29;20043;-81
2022/01/12 01:03:29;;;;;;;9.52;6.68;;;;;;;15.05;39.27;94737.69;4911238;29;20547;-81
2022/01/12 01:05:55;;;;;;;11.43;7.85;;;;;;;15.05;39.50;94736.94;4877978;29;20055;-81
2022/01/12 01:08:21;;;;;;;9.45;6.75;;;;;;;15.03;39.45;94731.19;4877134;29;20043;-81
2022/01/12 01:10:47;;;;;;;10.75;7.65;;;;;;;15.00;39.52;94735.59;4910449;29;20043;-82
2022/01/12 01:13:18;;;;;;;10.80;7.07;;;;;;;15.06;39.17;94733.00;4929048;28;20040;-81
2022/01/12 01:26:40;;;;;;;10.27;6.85;;;;;;;15.03;39.33;94729.22;4936870;29;20094;-81
2022/01/12 01:29:06;;;;;;;8.48;6.07;;;;;;;15.12;39.09;94738.59;4949791;28;20039;-81
2022/01/12 01:31:33;;;;;;;8.70;6.55;;;;;;;15.05;39.24;94748.59;4918549;29;20423;-81
2022/01/12 01:34:05;;;;;;;10.82;7.65;;;;;;;15.07;39.34;94746.16;4934906;29;20126;-81
2022/01/12 01:36:31;;;;;;;9.73;6.63;;;;;;;15.04;39.38;94747.06;4920043;29;20039;-81
2022/01/12 01:38:57;;;;;;;9.35;6.53;;;;;;;15.07;39.21;94750.84;4934382;29;20046;-81
2022/01/12 01:41:22;;;;;;;11.45;7.22;;;;;;;15.03;39.29;94744.81;4917886;29;20723;-82
2022/01/12 01:44:05;;;;;;;9.30;6.15;;;;;;;15.05;39.16;94754.03;4910693;28;20092;-81
2022/01/12 01:54:43;;;;;;;8.77;6.10;;;;;;;15.06;39.02;94750.09;4917538;29;20047;-81
2022/01/12 01:57:08;;;;;;;9.65;6.47;;;;;;;15.06;39.20;94747.38;4912936;28;20047;-81
2022/01/12 01:59:33;;;;;;;10.07;6.03;;;;;;;15.12;39.36;94738.59;4951327;28;20043;-81
2022/01/12 02:01:59;;;;;;;10.13;6.47;;;;;;;15.06;39.36;94746.63;4934595;28;20439;-81
2022/01/12 02:04:24;;;;;;;8.65;5.88;;;;;;;15.09;38.95;94743.75;4935147;28;20043;-81
2022/01/12 02:06:50;;;;;;;10.10;7.00;;;;;;;15.13;38.91;94751.00;4950019;28;20032;-81
2022/01/12 02:09:16;;;;;;;8.77;6.00;;;;;;;15.07;39.06;94754.34;4918453;28;20114;-81
2022/01/12 02:11:42;;;;;;;8.57;5.97;;;;;;;15.03;39.26;94748.28;4932299;28;20491;-81
2022/01/12 02:14:11;;;;;;;9.50;5.90;;;;;;;15.01;39.13;94747.22;4934008;28;20402;-81
2022/01/12 02:16:52;;;;;;;9.20;6.45;;;;;;;15.01;39.19;94741.78;4919451;28;20065;-81
2022/01/12 02:19:42;;;;;;;9.55;5.60;;;;;;;15.03;39.15;94744.81;4937196;28;20035;-81
2022/01/12 02:35:54;;;;;;;8.70;6.55;;;;;;;15.03;39.22;94742.09;4918733;28;20557;-81
2022/01/12 02:41:17;;;;;;;9.07;5.97;;;;;;;15.02;39.21;94733.16;4899130;29;20705;-81
2022/01/12 02:50:43;;;;;;;9.15;5.32;;;;;;;15.01;39.17;94720.00;4911606;29;20044;-81
2022/01/12 02:54:40;;;;;;;9.40;5.95;;;;;;;15.00;38.92;94732.09;4910343;29;20555;-81
2022/01/12 02:57:06;;;;;;;7.03;5.45;;;;;;;14.99;38.87;94723.19;4910581;29;20051;-81
2022/01/12 02:59:31;;;;;;;9.30;5.78;;;;;;;15.01;38.66;94722.72;4895011;29;20044;-81
2022/01/12 03:04:31;;;;;;;8.30;5.30;;;;;;;15.00;38.77;94726.66;4895330;29;20403;-81
2022/01/12 03:07:05;;;;;;;8.05;5.18;;;;;;;15.01;38.98;94725.44;4894798;29;20522;-81
2022/01/12 03:09:30;;;;;;;8.50;5.68;;;;;;;15.02;38.95;94722.25;4870630;29;20047;-81
2022/01/12 03:11:55;;;;;;;7.90;5.20;;;;;;;14.99;39.07;94722.41;4894766;29;20044;-81
2022/01/12 03:14:21;;;;;;;8.60;5.05;;;;;;;15.04;38.70;94716.38;4909889;29;20048;-81
2022/01/12 03:16:46;;;;;;;7.82;5.30;;;;;;;15.01;38.90;94715.31;4919583;29;20040;-80
2022/01/12 03:19:12;;;;;;;7.50;5.28;;;;;;;15.00;38.88;94721.97;4915183;29;20079;-80
2022/01/12 03:21:37;;;;;;;8.05;5.40;;;;;;;14.98;39.21;94723.63;4931209;28;20028;-81
2022/01/12 03:24:03;;;;;;;7.43;5.05;;;;;;;14.97;38.88;94722.13;4930122;28;20031;-81
2022/01/12 03:26:29;;;;;;;7.95;5.18;;;;;;;15.00;39.00;94729.38;4930593;28;20517;-81
2022/01/12 03:28:56;;;;;;;7.30;5.05;;;;;;;15.00;38.92;94723.94;4915346;29;20114;-81
2022/01/12 03:31:24;;;;;;;7.93;5.30;;;;;;;15.00;38.79;94726.66;4914400;28;20067;-81
2022/01/12 03:33:57;;;;;;;7.57;5.00;;;;;;;14.99;38.99;94723.19;4935470;28;20034;-81
2022/01/12 03:38:58;;;;;;;7.45;4.82;;;;;;;14.99;38.83;94709.56;4930630;28;20039;-81
2022/01/12 03:41:24;;;;;;;7.85;5.07;;;;;;;15.00;38.56;94700.19;4929688;28;20142;-81
2022/01/12 03:43:50;;;;;;;7.45;5.18;;;;;;;14.99;39.00;94716.97;4929926;29;20043;-81
2022/01/12 03:46:17;;;;;;;7.72;4.93;;;;;;;14.98;39.11;94721.66;4914385;28;20043;-81
2022/01/12 03:48:42;;;;;;;7.20;5.00;;;;;;;15.00;38.50;94721.97;4899019;29;20380;-81
2022/01/12 03:51:08;;;;;;;6.82;4.93;;;;;;;15.00;38.71;94726.66;4913815;29;20091;-81
2022/01/12 03:53:33;;;;;;;11.95;5.18;;;;;;;14.99;38.83;94720.44;4898262;29;20035;-81
2022/01/12 03:55:59;;;;;;;10.40;5.43;;;;;;;14.97;39.01;94722.88;4898671;29;20035;-81
2022/01/12 03:58:24;;;;;;;8.30;5.30;;;;;;;15.00;38.65;94721.22;4913489;29;20272;-81
2022/01/12 04:00:50;;;;;;;8.05;5.35;;;;;;;15.04;38.57;94711.69;4927692;28;20043;-81
2022/01/12 04:03:16;;;;;;;8.65;4.75;;;;;;;14.97;38.72;94720.16;4916966;28;20031;-81
2022/01/12 04:08:25;;;;;;;10.23;4.95;;;;;;;14.99;38.40;94736.03;4929652;28;20459;-81
2022/01/12 04:10:51;;;;;;;7.43;4.72;;;;;;;14.96;39.01;94720.59;4930135;28;20487;-81
2022/01/12 04:13:17;;;;;;;6.13;4.18;;;;;;;14.98;38.57;94724.38;4929315;28;20039;-81
2022/01/12 04:15:44;;;;;;;6.93;4.80;;;;;;;14.99;38.67;94722.41;4930451;28;20028;-81
2022/01/12 04:18:09;;;;;;;6.65;4.50;;;;;;;14.99;38.61;94723.19;4929627;28;20043;-81
2022/01/12 04:20:38;;;;;;;6.93;4.85;;;;;;;14.96;38.68;94729.53;4929833;28;20036;-81
2022/01/12 04:23:18;;;;;;;7.25;4.85;;;;;;;15.00;38.44;94732.09;4929365;28;20563;-81
2022/01/12 04:25:44;;;;;;;6.95;4.85;;;;;;;14.99;38.64;94725.91;4930211;29;20059;-81
2022/01/12 04:28:10;;;;;;;7.93;5.18;;;;;;;15.05;38.16;94726.81;4945460;28;20095;-81
2022/01/12 04:30:35;;;;;;;7.45;5.10;;;;;;;15.03;38.21;94731.94;4945628;28;20031;-81
2022/01/12 04:33:01;;;;;;;7.05;4.43;;;;;;;15.02;38.44;94724.22;4929816;28;20056;-81
2022/01/12 04:35:31;;;;;;;8.00;4.70;;;;;;;14.99;38.55;94722.41;4947900;28;20090;-81
2022/01/12 04:37:56;;;;;;;6.07;4.60;;;;;;;15.00;38.39;94723.94;4918068;29;20041;-81
2022/01/12 04:40:22;;;;;;;5.78;4.40;;;;;;;14.97;38.51;94720.16;4932066;28;20406;-81
2022/01/12 04:42:47;;;;;;;6.43;4.35;;;;;;;14.99;38.66;94720.44;4949950;28;20031;-81
2022/01/12 04:45:31;;;;;;;6.82;4.43;;;;;;;14.96;38.79;94721.34;4932314;28;20106;-81
2022/01/12 04:50:25;;;;;;;6.53;4.55;;;;;;;14.98;38.66;94726.34;4949165;28;20043;-81
2022/01/12 04:52:50;;;;;;;6.55;4.13;;;;;;;14.97;38.65;94719.41;4932788;28;20544;-81
2022/01/12 04:55:16;;;;;;;6.75;4.28;;;;;;;15.00;38.53;94716.53;4916125;28;20040;-81
2022/01/12 04:57:41;;;;;;;4.93;3.60;;;;;;;15.01;38.49;94728.16;4948532;28;20043;-81
2022/01/12 05:00:14;;;;;;;7.45;4.57;;;;;;;14.96;38.45;94726.81;4932142;28;20039;-81
2022/01/12 05:13:23;;;;;;;7.07;4.28;;;;;;;14.97;38.33;94746.63;4933180;29;20046;-81
2022/01/12 05:15:48;;;;;;;6.47;4.18;;;;;;;14.99;38.30;94736.03;4947061;28;20155;-81
2022/01/12 05:18:14;;;;;;;6.40;4.47;;;;;;;14.96;38.52;94747.84;4930467;28;20039;-81
2022/01/12 05:20:39;;;;;;;7.15;4.93;;;;;;;15.00;38.50;94749.19;4930849;29;20038;-81
2022/01/12 05:23:04;;;;;;;6.18;4.32;;;;;;;14.97;38.49;94754.78;4914948;28;20076;-81
2022/01/12 05:25:30;;;;;;;7.05;4.80;;;;;;;15.02;37.87;94763.13;4915168;29;20043;-79
2022/01/12 05:27:55;;;;;;;6.88;4.43;;;;;;;14.98;38.46;94759.03;4930939;29;20040;-82
2022/01/12 05:30:21;;;;;;;7.65;4.28;;;;;;;15.13;38.58;94770.81;4930458;29;20052;-79
2022/01/12 05:32:47;;;;;;;10.90;7.95;;;;;;;15.15;38.32;94768.41;4931046;29;20102;-82
2022/01/12 05:35:14;;;;;;;30.65;19.15;;;;;;;15.28;37.99;94777.16;4914105;28;20062;-83
2022/01/12 05:37:40;;;;;;;141.40;84.88;;;;;;;15.29;38.04;94778.66;4915550;29;20186;-80
2022/01/12 05:40:09;;;;;;;45.92;21.50;;;;;;;15.33;38.67;94773.81;4914550;28;20130;-83
2022/01/12 05:42:34;;;;;;;12.23;7.47;;;;;;;15.38;38.46;94769.69;4928329;28;20048;-83
2022/01/12 05:45:00;;;;;;;14.48;7.68;;;;;;;15.40;38.44;94778.94;4930286;28;20528;-84
2022/01/12 05:50:09;;;;;;;10.55;6.50;;;;;;;15.27;37.98;94777.59;4935328;28;20150;-87
2022/01/12 05:52:35;;;;;;;9.38;6.20;;;;;;;15.23;37.73;94782.44;4940854;28;20117;-84
2022/01/12 05:55:02;;;;;;;24.55;7.20;;;;;;;15.24;37.53;94784.72;4932375;28;20556;-85
2022/01/12 05:57:31;;;;;;;8.45;5.75;;;;;;;15.23;38.08;94785.19;4932526;28;20097;-86
2022/01/12 05:59:57;;;;;;;10.40;6.72;;;;;;;15.21;38.14;94777.47;4930902;28;20127;-85
2022/01/12 06:02:22;;;;;;;12.77;6.10;;;;;;;15.15;38.04;94768.41;4931550;28;20554;-85
2022/01/12 06:04:48;;;;;;;14.70;6.80;;;;;;;15.12;38.04;94774.75;4916912;29;20114;-85
2022/01/12 06:07:13;;;;;;;18.98;8.27;;;;;;;15.06;38.34;94766.44;4932934;28;20463;-85
2022/01/12 06:09:40;;;;;;;26.57;8.83;;;;;;;15.12;37.89;94777.47;4921225;28;20126;-89
2022/01/12 06:12:06;;;;;;;48.65;12.20;;;;;;;15.10;37.84;94788.06;4912441;28;20044;-87
2022/01/12 06:14:31;;;;;;;104.13;18.90;;;;;;;15.05;34.67;94785.97;4933841;29;20042;-89
2022/01/12 06:16:57;;;;;;;72.90;16.92;;;;;;;15.04;35.04;94789.88;4913273;29;20044;-86
2022/01/12 06:19:22;;;;;;;93.63;19.80;;;;;;;15.01;35.28;94793.53;4948304;28;20043;-87
2022/01/12 06:21:48;;;;;;;64.75;16.13;;;;;;;14.99;36.28;94799.41;4930566;28;20036;-86
2022/01/12 06:24:13;;;;;;;50.47;13.30;;;;;;;14.99;36.70;94798.66;4933224;28;20046;-88
2022/01/12 06:26:38;;;;;;;47.00;12.60;;;;;;;15.05;35.81;94797.59;4949190;28;20550;-85
2022/01/12 06:31:40;;;;;;;43.53;14.90;;;;;;;15.05;36.74;94799.56;4934591;28;20130;-86
2022/01/12 06:34:06;;;;;;;66.03;22.55;;;;;;;15.02;37.02;94790.34;4921540;28;20039;-84
2022/01/12 06:36:31;;;;;;;54.20;20.25;;;;;;;14.98;37.32;94811.53;4937151;28;20383;-85
2022/01/12 06:38:57;;;;;;;85.30;27.80;;;;;;;15.03;37.30;94818.34;4917444;29;20043;-85
2022/01/12 06:41:22;;;;;;;122.07;29.73;;;;;;;15.06;37.22;94812.75;4948579;28;20403;-84
2022/01/12 06:43:49;;;;;;;84.60;27.13;;;;;;;15.03;37.49;94813.66;4946773;28;20517;-83
2022/01/12 06:46:17;;;;;;;84.40;27.20;;;;;;;14.98;37.37;94824.38;4924785;28;20105;-84
2022/01/12 06:48:43;;;;;;;64.75;24.23;;;;;;;14.96;37.19;94824.06;4933351;28;20043;-85
2022/01/12 06:51:08;;;;;;;61.33;23.65;;;;;;;15.01;35.07;94823.47;4930397;28;20115;-85
2022/01/12 06:53:33;;;;;;;80.93;27.77;;;;;;;14.95;35.85;94831.47;4916993;29;20040;-86
2022/01/12 06:55:59;;;;;;;60.92;24.65;;;;;;;14.99;35.17;94829.38;4954305;28;20449;-85
2022/01/12 06:58:25;;;;;;;80.30;27.55;;;;;;;14.98;36.01;94830.56;4932673;28;20414;-86
2022/01/12 07:00:50;;;;;;;69.25;27.35;;;;;;;15.06;35.84;94831.03;4933039;28;20040;-84
2022/01/12 07:03:16;;;;;;;82.60;33.60;;;;;;;14.99;36.23;94845.72;4949426;28;20035;-82
2022/01/12 07:05:41;;;;;;;80.38;31.90;;;;;;;14.98;36.84;94846.16;4919205;28;20039;-84
2022/01/12 07:08:08;;;;;;;84.05;35.95;;;;;;;15.03;36.82;94846.31;4916615;28;20039;-83
2022/01/12 07:10:33;;;;;;;87.53;39.08;;;;;;;15.07;36.63;94862.50;4935502;28;20607;-86
2022/01/12 07:12:59;;;;;;;84.85;38.63;;;;;;;15.14;36.71;94856.03;4918724;29;20082;-83
2022/01/12 07:15:24;;;;;;;95.68;39.10;;;;;;;15.16;36.54;94848.88;4949712;28;20118;-80
2022/01/12 07:17:50;;;;;;;92.95;40.25;;;;;;;15.04;37.10;94869.63;4969020;28;20644;-81
2022/01/12 07:20:16;;;;;;;88.25;41.30;;;;;;;15.06;36.81;94871.91;4937487;28;20071;-82
2022/01/12 07:22:42;;;;;;;76.90;35.78;;;;;;;15.20;36.38;94874.00;4933402;28;20031;-82
2022/01/12 07:25:07;;;;;;;85.95;39.47;;;;;;;15.11;36.84;94868.56;4950181;28;20067;-82
2022/01/12 07:27:33;;;;;;;85.30;39.53;;;;;;;15.07;36.67;94868.72;4918527;29;20028;-83
2022/01/12 07:29:58;;;;;;;85.93;33.70;;;;;;;15.11;36.54;94874.03;4934286;28;20118;-84
2022/01/12 07:32:24;;;;;;;96.90;34.60;;;;;;;15.09;36.86;94882.66;4930936;28;20780;-85
2022/01/12 07:34:50;;;;;;;89.22;31.42;;;;;;;15.16;36.49;94878.84;4951984;28;20039;-82
2022/01/12 07:37:16;;;;;;;86.78;34.83;;;;;;;15.07;37.00;94882.34;4921165;28;20267;-83
2022/01/12 07:39:41;;;;;;;82.18;33.50;;;;;;;15.16;36.54;94891.69;4937726;28;20776;-85
2022/01/12 07:42:07;;;;;;;96.50;37.17;;;;;;;15.15;36.71;94901.88;4935432;28;20525;-84
2022/01/12 07:44:33;;;;;;;109.30;40.75;;;;;;;15.20;36.79;94900.50;4914256;28;20496;-85
2022/01/12 07:46:58;;;;;;;83.10;38.88;;;;;;;15.15;36.95;94912.00;4935690;28;20259;-83
2022/01/12 07:49:23;;;;;;;134.75;42.70;;;;;;;15.16;36.53;94911.53;4934631;28;20055;-84
2022/01/12 07:51:49;;;;;;;100.13;37.00;;;;;;;15.12;36.90;94904.75;4919422;29;20653;-87
2022/01/12 07:54:14;;;;;;;327.65;78.10;;;;;;;15.16;36.85;94910.78;4957680;28;20092;-83
2022/01/12 07:56:40;;;;;;;160.68;48.15;;;;;;;15.13;37.17;94912.47;4938956;28;20039;-83
2022/01/12 07:59:05;;;;;;;114.45;35.83;;;;;;;15.18;36.81;94919.25;4946669;28;20122;-85
2022/01/12 08:01:31;;;;;;;109.70;38.22;;;;;;;15.18;37.01;94928.19;4948940;28;20035;-85
2022/01/12 08:03:57;;;;;;;78.63;33.05;;;;;;;15.16;36.84;94930.59;4941099;28;20469;-84
2022/01/12 08:06:22;;;;;;;83.40;32.78;;;;;;;15.22;36.85;94926.06;4936983;28;20587;-85
2022/01/12 08:08:48;;;;;;;92.93;35.67;;;;;;;15.20;36.91;94931.22;4967203;28;20517;-86
2022/01/12 08:11:13;;;;;;;110.78;40.28;;;;;;;15.19;36.89;94932.41;4934653;28;20042;-85
2022/01/12 08:13:39;;;;;;;102.57;42.47;;;;;;;15.18;36.82;94924.69;4938554;28;20046;-84
2022/01/12 08:16:05;;;;;;;94.22;43.22;;;;;;;15.20;37.04;94931.22;4951432;28;20426;-85
2022/01/12 08:18:31;;;;;;;110.13;46.70;;;;;;;15.15;36.91;94933.81;4943533;28;20061;-85
2022/01/12 08:20:57;;;;;;;98.18;37.20;;;;;;;15.22;36.75;94938.94;4924335;28;20948;-87
2022/01/12 08:23:22;;;;;;;112.90;43.70;;;;;;;15.20;37.10;94944.06;4933336;28;20565;-86
2022/01/12 08:25:47;;;;;;;97.75;43.78;;;;;;;15.19;37.07;94951.50;4917562;28;20043;-87
2022/01/12 08:28:13;;;;;;;98.78;40.58;;;;;;;15.19;37.09;94945.28;4970058;28;20043;-86
2022/01/12 08:30:39;;;;;;;104.35;46.00;;;;;;;15.22;37.20;94945.13;4940781;28;20509;-85
2022/01/12 08:33:04;;;;;;;158.50;67.63;;;;;;;15.31;36.86;94947.88;4954391;28;20050;-85
2022/01/12 08:35:30;;;;;;;202.32;73.53;;;;;;;15.29;36.90;94955.75;4953536;28;20038;-88
2022/01/12 08:37:57;;;;;;;94.43;42.92;;;;;;;15.25;37.03;94952.41;4937777;28;20465;-86
2022/01/12 08:40:22;;;;;;;110.93;45.78;;;;;;;15.21;37.11;94951.03;4960149;28;20046;-86
2022/01/12 08:42:48;;;;;;;96.35;44.38;;;;;;;15.20;37.09;94950.28;4936797;28;20046;-86
2022/01/12 08:45:14;;;;;;;137.88;50.45;;;;;;;15.30;36.91;94953.78;4946734;28;20055;-86
2022/01/12 08:47:40;;;;;;;93.03;38.53;;;;;;;15.22;36.88;94950.59;4919000;28;20043;-87
2022/01/12 08:50:06;;;;;;;102.18;47.28;;;;;;;15.23;37.08;94967.69;4908897;28;20052;-88
2022/01/12 08:52:31;;;;;;;110.25;42.53;;;;;;;15.26;36.86;94964.81;4968786;28;20105;-87
2022/01/12 08:54:57;;;;;;;191.95;72.63;;;;;;;15.25;36.97;94965.28;4941339;28;20587;-88
2022/01/12 08:57:23;;;;;;;126.80;53.90;;;;;;;15.30;37.08;94978.31;4940422;28;20508;-86
2022/01/12 08:59:48;;;;;;;612.30;87.95;;;;;;;15.35;37.08;94962.13;4948192;28;20041;-87
2022/01/12 09:02:14;;;;;;;166.55;45.97;;;;;;;15.29;36.92;94971.34;4961782;28;20418;-86
2022/01/12 09:04:42;;;;;;;99.80;34.90;;;;;;;15.35;36.15;94966.81;4921622;28;20058;-87
2022/01/12 09:07:07;;;;;;;85.43;35.97;;;;;;;15.28;35.92;94964.38;4919928;28;20170;-88
2022/01/12 09:09:33;;;;;;;98.00;36.65;;;;;;;15.26;35.74;94959.38;4936694;28;20938;-87
2022/01/12 09:11:58;;;;;;;296.02;172.02;;;;;;;15.34;35.59;94955.16;4924759;29;20043;-87
2022/01/12 09:14:24;;;;;;;112.63;41.67;;;;;;;15.30;35.94;94954.53;4915094;28;20865;-87
2022/01/12 09:16:56;;;;;;;102.28;39.13;;;;;;;15.34;36.39;94948.94;4952646;28;20046;-87
2022/01/12 09:19:22;;;;;;;110.60;44.25;;;;;;;15.31;36.77;94950.59;4936002;28;20109;-86
2022/01/12 09:21:47;;;;;;;127.10;54.75;;;;;;;15.34;36.87;94954.41;4971056;28;20043;-88
2022/01/12 09:24:13;;;;;;;102.93;42.38;;;;;;;15.29;36.41;94955.75;4939785;28;20042;-83
2022/01/12 09:26:39;;;;;;;99.47;34.60;;;;;;;15.30;36.17;94959.22;4941872;28;20460;-87
2022/01/12 09:29:05;;;;;;;121.25;45.00;;;;;;;15.29;36.70;94960.44;4955148;28;20054;-86
2022/01/12 09:31:30;;;;;;;119.93;39.30;;;;;;;15.39;36.32;94949.09;4950790;28;20034;-88
2022/01/12 09:33:55;;;;;;;115.88;41.47;;;;;;;15.32;36.50;94959.53;4919296;28;20137;-87
2022/01/12 09:36:21;;;;;;;86.88;37.22;;;;;;;15.33;36.26;94966.50;4922804;28;20497;-87
2022/01/12 09:38:46;;;;;;;107.55;46.55;;;;;;;15.31;36.25;94955.28;4940257;28;20081;-86
2022/01/12 09:41:12;;;;;;;96.80;44.42;;;;;;;15.36;36.25;94954.69;4917465;29;20047;-86
2022/01/12 09:43:39;;;;;;;106.00;45.10;;;;;;;15.35;36.15;94964.09;4937676;28;20167;-85
2022/01/12 09:46:04;;;;;;;319.90;69.18;;;;;;;15.45;36.32;94968.31;4929614;28;20053;-85
2022/01/12 09:48:34;;;;;;;1057.90;159.02;;;;;;;15.53;36.22;94961.38;4934036;28;20043;-85
2022/01/12 09:51:01;;;;;;;175.57;57.35;;;;;;;15.43;36.57;94955.16;4956522;28;20074;-86
2022/01/12 09:53:30;;;;;;;228.77;60.72;;;;;;;15.44;36.49;94958.63;4933116;28;20043;-86
2022/01/12 09:55:55;;;;;;;142.02;53.45;;;;;;;15.42;36.54;94961.81;4935422;28;20038;-86
2022/01/12 09:58:20;;;;;;;149.38;52.05;;;;;;;15.38;36.42;94963.91;4956482;28;20031;-86
2022/01/12 10:00:59;;;;;;;143.98;52.70;;;;;;;15.38;36.56;94968.59;4922302;29;20395;-86
2022/01/12 10:03:25;;;;;;;178.85;56.90;;;;;;;15.42;36.11;94959.06;4937110;28;20051;-87
2022/01/12 10:05:52;;;;;;;210.52;57.72;;;;;;;15.43;36.37;94968.00;4942296;28;20039;-86
2022/01/12 10:08:17;;;;;;;179.55;58.53;;;;;;;15.48;36.50;94958.47;4941122;28;20158;-87
2022/01/12 10:10:59;;;;;;;169.00;58.83;;;;;;;15.46;36.53;94956.22;4965078;28;20434;-87
2022/01/12 10:13:25;;;;;;;167.65;57.92;;;;;;;15.47;36.66;94956.97;4969261;28;20039;-87
2022/01/12 10:15:53;;;;;;;156.45;55.63;;;;;;;15.48;36.58;94958.47;4950278;28;20041;-87
2022/01/12 10:18:19;;;;;;;159.18;57.92;;;;;;;15.52;36.36;94962.56;4940963;28;20035;-87
2022/01/12 10:20:45;;;;;;;171.93;59.97;;;;;;;15.57;36.36;94967.47;4939015;28;20042;-87
2022/01/12 10:23:13;;;;;;;154.73;56.88;;;;;;;15.50;36.66;94972.41;4955449;28;20046;-86
2022/01/12 10:25:41;;;;;;;167.80;58.13;;;;;;;15.48;36.81;94956.50;4955910;28;20086;-87
2022/01/12 10:28:20;;;;;;;129.20;54.22;;;;;;;15.48;36.76;94951.06;4940138;28;20050;-86
2022/01/12 10:30:56;;;;;;;133.10;52.95;;;;;;;15.50;36.70;94962.28;4939404;28;20054;-87
2022/01/12 10:33:26;;;;;;;155.77;54.78;;;;;;;15.49;36.67;94958.03;4920871;28;25459;-87
2022/01/12 10:35:56;;;;;;;141.35;61.63;;;;;;;15.51;36.83;94963.03;4937362;28;20043;-87
2022/01/12 10:38:22;;;;;;;146.93;57.00;;;;;;;15.50;36.70;94958.78;4936380;28;20102;-88
2022/01/12 10:40:58;;;;;;;135.73;52.97;;;;;;;15.51;36.78;94957.56;4937255;28;20130;-86
2022/01/12 10:43:39;;;;;;;134.02;57.85;;;;;;;15.50;36.87;94965.00;4934475;28;20071;-87
2022/01/12 10:46:12;;;;;;;137.13;57.72;;;;;;;15.61;36.69;94959.84;4952096;28;20053;-86
2022/01/12 10:48:45;;;;;;;146.15;58.92;;;;;;;15.53;36.93;94955.91;4935278;28;20047;-87
2022/01/12 10:51:11;;;;;;;145.30;59.20;;;;;;;15.55;36.77;94941.84;4951005;28;20043;-86
2022/01/12 10:53:38;;;;;;;132.88;59.20;;;;;;;15.50;36.94;94935.00;4918358;28;20042;-86
2022/01/12 10:56:08;;;;;;;143.07;59.33;;;;;;;15.53;36.59;94947.75;4921433;28;20147;-87
2022/01/12 10:58:34;;;;;;;142.57;59.45;;;;;;;15.59;36.82;94948.66;4935031;28;20046;-86
2022/01/12 11:00:59;;;;;;;184.75;72.63;;;;;;;15.58;36.48;94954.59;4935325;28;20035;-87
2022/01/12 11:03:24;;;;;;;163.35;68.97;;;;;;;15.59;36.58;94947.94;4934788;28;20047;-86
2022/01/12 11:05:53;;;;;;;182.68;73.05;;;;;;;15.52;36.43;94950.91;4959235;28;20039;-86
2022/01/12 11:08:18;;;;;;;161.93;73.32;;;;;;;15.54;36.58;94948.50;4947872;28;20050;-87
2022/01/12 11:10:45;;;;;;;171.73;69.85;;;;;;;15.56;36.58;94943.38;4955891;28;20130;-86
2022/01/12 11:13:11;;;;;;;147.48;65.82;;;;;;;15.51;37.03;94931.09;4933450;28;20027;-87
2022/01/12 11:15:36;;;;;;;142.52;63.60;;;;;;;15.57;36.94;94928.53;4945958;28;20096;-85
2022/01/12 11:18:02;;;;;;;133.77;58.47;;;;;;;15.62;36.89;94934.13;4925470;28;20031;-87
2022/01/12 11:20:28;;;;;;;136.13;58.22;;;;;;;15.61;37.08;94938.06;4947967;28;20447;-86
2022/01/12 11:22:54;;;;;;;138.35;61.72;;;;;;;15.62;37.03;94938.81;4950714;28;20035;-88
2022/01/12 11:25:25;;;;;;;114.32;56.15;;;;;;;15.63;36.89;94937.59;4951328;28;20089;-87
2022/01/12 11:28:07;;;;;;;105.90;51.38;;;;;;;15.63;37.44;94935.63;4918943;28;20043;-87
2022/01/12 11:30:33;;;;;;;114.13;49.72;;;;;;;15.62;36.69;94938.81;4954933;28;20051;-87
2022/01/12 11:33:00;;;;;;;110.88;50.53;;;;;;;15.57;36.76;94937.47;4899973;29;20384;-87
2022/01/12 11:35:32;;;;;;;114.32;50.53;;;;;;;15.56;36.88;94935.19;4934805;28;20039;-88
2022/01/12 11:37:59;;;;;;;97.85;50.45;;;;;;;15.60;37.23;94939.25;4953658;28;20039;-86
2022/01/12 11:40:40;;;;;;;94.28;47.72;;;;;;;15.55;37.02;94934.41;4962706;28;20035;-86
2022/01/12 11:43:25;;;;;;;88.97;43.42;;;;;;;15.55;36.83;94923.50;4970451;28;20034;-86
2022/01/12 11:46:07;;;;;;;89.82;43.45;;;;;;;15.61;36.92;94921.69;4935243;28;20054;-87
2022/01/12 11:48:44;;;;;;;86.07;44.03;;;;;;;15.59;37.24;94923.41;4951870;29;20039;-86
2022/01/12 11:51:09;;;;;;;81.35;41.72;;;;;;;15.61;36.76;94927.16;4926785;28;20134;-87
2022/01/12 11:53:44;;;;;;;136.48;70.38;;;;;;;15.58;37.14;94921.88;4917598;29;20662;-87
2022/01/12 11:56:13;;;;;;;108.30;54.72;;;;;;;15.65;36.80;94924.28;4965475;28;20090;-87
2022/01/12 11:58:50;;;;;;;99.85;52.05;;;;;;;15.61;36.87;94918.22;4931452;28;20067;-87
2022/01/12 12:01:16;;;;;;;131.63;59.58;;;;;;;15.58;36.83;94914.47;4949973;28;20122;-87
2022/01/12 12:03:41;;;;;;;154.25;65.72;;;;;;;15.64;36.86;94920.78;4931742;28;20568;-87
2022/01/12 12:06:16;;;;;;;140.90;65.38;;;;;;;15.65;37.08;94924.28;4899516;28;20028;-87
2022/01/12 12:08:56;;;;;;;141.48;62.67;;;;;;;15.63;36.93;94929.44;4916824;29;20096;-85
2022/01/12 12:11:24;;;;;;;155.48;69.50;;;;;;;15.64;36.98;94930.94;4930899;28;20035;-87
2022/01/12 12:13:50;;;;;;;219.07;84.20;;;;;;;15.69;37.04;94936.53;4931928;28;20036;-87
2022/01/12 12:16:15;;;;;;;160.10;69.65;;;;;;;15.63;37.09;94932.91;4934435;28;20045;-86
2022/01/12 12:18:41;;;;;;;164.20;74.00;;;;;;;15.64;36.15;94947.28;4935680;28;20585;-87
2022/01/12 12:21:06;;;;;;;193.88;78.22;;;;;;;15.65;36.26;94940.63;4948090;28;20030;-88
2022/01/12 12:23:32;;;;;;;169.98;73.22;;;;;;;15.63;35.29;94940.31;4955361;28;20405;-86
2022/01/12 12:25:59;;;;;;;146.65;67.32;;;;;;;15.67;35.03;94933.50;4954106;28;20765;-85
2022/01/12 12:28:26;;;;;;;181.73;73.93;;;;;;;15.61;35.40;94940.03;4953294;28;20054;-86
2022/01/12 12:30:51;;;;;;;158.20;70.38;;;;;;;15.58;35.34;94940.97;4957915;28;20158;-85
2022/01/12 12:33:17;;;;;;;171.25;74.07;;;;;;;15.57;35.48;94948.38;4942715;28;20086;-84
2022/01/12 12:35:43;;;;;;;182.98;84.07;;;;;;;15.62;36.06;94944.25;4918110;29;20110;-85